Time;durP1;ratioP1;P1;durP2;ratioP2;P2;SDS_P1;SDS_P2;PMS_P1;PMS_P2;Temp;Humidity;BMP_temperature;BMP_pressure;BME280_temperature;BME280_humidity;BME280_pressure;Samples;Min_cycle;Max_cycle;Signal;HPM_P1;HPM_P2
2022/07/19 00:02:03;;;;;;;2.80;1.98;;;24.50;56.20;;;;;;4492339;31;20213;-68
2022/07/19 00:04:29;;;;;;;2.72;1.85;;;24.50;56.30;;;;;;4492497;31;20426;-69
2022/07/19 00:06:55;;;;;;;3.85;1.95;;;24.40;56.20;;;;;;4478051;31;20080;-69
2022/07/19 00:09:22;;;;;;;3.30;2.20;;;24.50;56.30;;;;;;4477678;31;20180;-70
2022/07/19 00:11:48;;;;;;;3.38;1.98;;;24.40;56.20;;;;;;4492110;31;20085;-69
2022/07/19 00:14:14;;;;;;;3.80;1.90;;;24.40;56.20;;;;;;4492244;31;20091;-69
2022/07/19 00:16:40;;;;;;;4.13;2.35;;;24.40;56.20;;;;;;4492132;31;20160;-68
2022/07/19 00:19:06;;;;;;;2.72;1.80;;;24.40;56.20;;;;;;4492036;31;20150;-68
2022/07/19 00:21:32;;;;;;;3.33;2.08;;;24.40;56.30;;;;;;4491975;31;20065;-69
2022/07/19 00:24:00;;;;;;;3.13;2.00;;;24.40;56.20;;;;;;4492061;31;20525;-69
2022/07/19 00:26:27;;;;;;;3.67;2.10;;;24.40;56.30;;;;;;4491946;31;20527;-69
2022/07/19 00:28:54;;;;;;;2.50;2.00;;;24.40;56.30;;;;;;4490229;31;20621;-68
2022/07/19 00:31:24;;;;;;;3.35;1.95;;;24.40;56.30;;;;;;4492135;31;20159;-69
2022/07/19 00:33:50;;;;;;;3.20;2.08;;;24.40;56.30;;;;;;4491671;31;20113;-69
2022/07/19 00:36:17;;;;;;;3.80;2.28;;;24.40;56.30;;;;;;4491961;31;20073;-68
2022/07/19 00:38:43;;;;;;;2.90;2.00;;;24.40;56.30;;;;;;4491972;31;20418;-68
2022/07/19 00:41:09;;;;;;;3.80;2.08;;;24.40;56.30;;;;;;4492009;31;20548;-69
2022/07/19 00:43:34;;;;;;;2.30;1.88;;;24.40;56.30;;;;;;4491763;31;20481;-68
2022/07/19 00:46:01;;;;;;;2.60;2.00;;;24.40;56.30;;;;;;4491766;31;20077;-69
2022/07/19 00:48:27;;;;;;;3.88;2.13;;;24.40;56.30;;;;;;4491660;31;20084;-69
2022/07/19 00:50:53;;;;;;;2.78;2.00;;;24.40;56.40;;;;;;4491636;31;20124;-68
2022/07/19 00:53:20;;;;;;;2.55;1.80;;;24.40;56.30;;;;;;4491554;31;20081;-69
2022/07/19 00:55:46;;;;;;;2.38;1.83;;;24.40;56.40;;;;;;4491922;31;20077;-68
2022/07/19 00:58:13;;;;;;;2.55;2.00;;;24.40;56.40;;;;;;4491650;31;20182;-69
2022/07/19 01:00:40;;;;;;;2.20;1.60;;;24.40;56.40;;;;;;4491494;31;20616;-68
2022/07/19 01:03:11;;;;;;;2.60;2.05;;;24.40;56.40;;;;;;4491732;31;20483;-69
2022/07/19 01:05:38;;;;;;;2.75;1.88;;;24.40;56.40;;;;;;4491538;31;20128;-70
2022/07/19 01:08:06;;;;;;;2.65;1.90;;;24.40;56.40;;;;;;4464415;31;20081;-69
2022/07/19 01:10:32;;;;;;;2.92;2.20;;;24.40;56.50;;;;;;4491316;31;20422;-69
2022/07/19 01:12:58;;;;;;;2.42;2.05;;;24.40;56.40;;;;;;4477478;31;20073;-68
2022/07/19 01:15:26;;;;;;;3.05;1.92;;;24.30;56.40;;;;;;4491161;31;20065;-69
2022/07/19 01:17:52;;;;;;;2.67;1.95;;;24.30;56.40;;;;;;4477346;31;20218;-68
2022/07/19 01:20:20;;;;;;;2.65;1.90;;;24.30;56.40;;;;;;4491066;31;20061;-68
2022/07/19 01:22:46;;;;;;;3.92;2.30;;;24.30;56.40;;;;;;4491255;31;20084;-68
2022/07/19 01:25:13;;;;;;;2.97;2.08;;;24.30;56.40;;;;;;4491471;31;20401;-69
2022/07/19 01:27:40;;;;;;;3.13;1.85;;;24.30;56.40;;;;;;4491191;31;20085;-68
2022/07/19 01:30:14;;;;;;;2.63;2.00;;;24.30;56.40;;;;;;4491489;31;20187;-68
2022/07/19 01:32:40;;;;;;;1.95;1.70;;;24.30;56.40;;;;;;4491338;32;20592;-69
2022/07/19 01:35:07;;;;;;;2.70;1.83;;;24.30;56.50;;;;;;4491414;32;20092;-68
2022/07/19 01:37:34;;;;;;;2.22;1.95;;;24.30;56.50;;;;;;4491133;32;20095;-68
2022/07/19 01:40:03;;;;;;;2.63;1.77;;;24.30;56.40;;;;;;4491128;32;20097;-68
2022/07/19 01:42:28;;;;;;;2.60;1.88;;;24.30;56.40;;;;;;4491288;32;20136;-71
2022/07/19 01:44:55;;;;;;;2.63;2.20;;;24.30;56.50;;;;;;4491144;32;20202;-68
2022/07/19 01:47:21;;;;;;;2.90;1.80;;;24.30;56.50;;;;;;4485021;32;20507;-69
2022/07/19 01:49:48;;;;;;;3.40;2.00;;;24.30;56.40;;;;;;4479264;32;20092;-68
2022/07/19 01:52:14;;;;;;;2.10;1.70;;;24.30;56.50;;;;;;4476626;32;20078;-68
2022/07/19 01:54:39;;;;;;;2.67;1.75;;;24.30;56.50;;;;;;4476830;32;20556;-68
2022/07/19 01:57:05;;;;;;;2.75;2.13;;;24.30;56.50;;;;;;4476865;32;20136;-68
2022/07/19 01:59:31;;;;;;;2.78;1.95;;;24.30;56.50;;;;;;4475627;32;20077;-70
2022/07/19 02:01:57;;;;;;;3.83;2.03;;;24.30;56.50;;;;;;4473574;32;20103;-70
2022/07/19 02:04:23;;;;;;;2.33;1.90;;;24.30;56.50;;;;;;4472992;32;20085;-68
2022/07/19 02:06:49;;;;;;;2.83;2.05;;;24.30;56.50;;;;;;4478359;32;20112;-69
2022/07/19 02:09:15;;;;;;;2.25;1.98;;;24.30;56.60;;;;;;4473028;32;20553;-68
2022/07/19 02:11:40;;;;;;;2.28;1.80;;;24.20;56.50;;;;;;4478416;32;20117;-68
2022/07/19 02:14:09;;;;;;;2.10;1.80;;;24.20;56.50;;;;;;4476153;32;20074;-68
2022/07/19 02:16:36;;;;;;;2.10;1.80;;;24.20;56.60;;;;;;4476921;32;20486;-68
2022/07/19 02:19:03;;;;;;;3.13;1.83;;;24.20;56.60;;;;;;4481524;32;20096;-68
2022/07/19 02:21:29;;;;;;;2.40;1.90;;;24.20;56.50;;;;;;4490600;32;20093;-68
2022/07/19 02:23:55;;;;;;;1.88;1.50;;;24.20;56.60;;;;;;4490847;32;20563;-69
2022/07/19 02:26:21;;;;;;;2.10;1.83;;;24.20;56.60;;;;;;4483608;32;20149;-70
2022/07/19 02:28:47;;;;;;;2.33;2.08;;;24.20;56.60;;;;;;4479426;32;20089;-69
2022/07/19 02:31:13;;;;;;;2.03;1.55;;;24.20;56.60;;;;;;4474552;32;20219;-69
2022/07/19 02:33:38;;;;;;;2.28;1.80;;;24.20;56.60;;;;;;4477966;31;20190;-68
2022/07/19 02:36:05;;;;;;;2.35;1.85;;;24.20;56.70;;;;;;4470970;31;20090;-69
2022/07/19 02:38:31;;;;;;;2.53;2.00;;;24.20;56.70;;;;;;4478910;31;20184;-68
2022/07/19 02:40:57;;;;;;;2.90;2.10;;;24.20;56.70;;;;;;4475701;31;20095;-68
2022/07/19 02:43:23;;;;;;;2.47;2.08;;;24.20;56.70;;;;;;4493304;31;20065;-69
2022/07/19 02:45:48;;;;;;;2.40;1.90;;;24.20;56.70;;;;;;4488170;31;20136;-68
2022/07/19 02:48:15;;;;;;;2.65;1.75;;;24.20;56.70;;;;;;4480902;31;20099;-68
2022/07/19 02:50:41;;;;;;;2.95;1.98;;;24.20;56.70;;;;;;4478587;31;20474;-68
2022/07/19 02:53:07;;;;;;;2.15;1.75;;;24.20;56.70;;;;;;4479394;31;20077;-68
2022/07/19 02:55:33;;;;;;;2.78;2.20;;;24.20;56.60;;;;;;4479472;31;20072;-68
2022/07/19 02:57:59;;;;;;;2.33;1.70;;;24.20;56.70;;;;;;4483074;31;20154;-68
2022/07/19 03:00:25;;;;;;;3.15;2.08;;;24.20;56.70;;;;;;4479418;31;20058;-68
2022/07/19 03:02:51;;;;;;;2.47;2.15;;;24.20;56.70;;;;;;4478081;31;20092;-68
2022/07/19 03:05:17;;;;;;;2.25;1.90;;;24.20;56.70;;;;;;4479808;31;20507;-68
2022/07/19 03:07:42;;;;;;;3.95;2.20;;;24.20;56.70;;;;;;4477389;31;20124;-68
2022/07/19 03:10:09;;;;;;;2.00;1.77;;;24.20;56.70;;;;;;4480813;31;20069;-68
2022/07/19 03:12:35;;;;;;;2.15;1.95;;;24.10;56.60;;;;;;4478794;31;20096;-68
2022/07/19 03:15:01;;;;;;;2.90;2.10;;;24.10;56.60;;;;;;4475573;31;20321;-70
2022/07/19 03:17:27;;;;;;;2.08;1.83;;;24.20;56.70;;;;;;4482984;31;20069;-68
2022/07/19 03:19:53;;;;;;;3.25;1.95;;;24.20;56.70;;;;;;4493156;31;20089;-68
2022/07/19 03:22:19;;;;;;;3.15;2.20;;;24.10;56.70;;;;;;4492726;31;20069;-68
2022/07/19 03:24:44;;;;;;;2.28;2.08;;;24.10;56.70;;;;;;4492805;31;20391;-68
2022/07/19 03:27:10;;;;;;;2.25;1.67;;;24.10;56.70;;;;;;4478560;31;20589;-68
2022/07/19 03:29:36;;;;;;;2.70;2.20;;;24.10;56.70;;;;;;4486587;31;20417;-68
2022/07/19 03:32:02;;;;;;;2.30;2.00;;;24.10;56.70;;;;;;4477019;31;20182;-68
2022/07/19 03:34:31;;;;;;;2.33;2.13;;;24.10;56.70;;;;;;4490286;31;20084;-68
2022/07/19 03:36:57;;;;;;;2.63;1.80;;;24.10;56.70;;;;;;4492651;31;20093;-68
2022/07/19 03:39:23;;;;;;;2.30;2.10;;;24.10;56.70;;;;;;4478535;31;20073;-72
2022/07/19 03:41:48;;;;;;;2.35;1.75;;;24.10;56.70;;;;;;4493040;31;20088;-68
2022/07/19 03:44:14;;;;;;;2.13;1.80;;;24.10;56.70;;;;;;4492023;31;20095;-68
2022/07/19 03:46:40;;;;;;;1.92;1.73;;;24.10;56.70;;;;;;4492388;31;20088;-68
2022/07/19 03:49:07;;;;;;;2.00;1.77;;;24.10;56.70;;;;;;4492852;31;20088;-68
2022/07/19 03:51:32;;;;;;;2.50;1.83;;;24.10;56.70;;;;;;4492002;31;20471;-68
2022/07/19 03:53:58;;;;;;;3.05;2.40;;;24.10;56.70;;;;;;4480127;31;20725;-70
2022/07/19 03:56:24;;;;;;;2.67;2.03;;;24.10;56.70;;;;;;4490095;31;20594;-69
2022/07/19 03:58:50;;;;;;;2.33;1.90;;;24.10;56.70;;;;;;4489472;31;20073;-69
2022/07/19 04:01:16;;;;;;;3.22;2.10;;;24.10;56.80;;;;;;4479407;31;20097;-69
2022/07/19 04:03:43;;;;;;;3.10;2.10;;;24.10;56.80;;;;;;4481563;31;20140;-68
2022/07/19 04:06:10;;;;;;;2.10;1.80;;;24.10;56.80;;;;;;4492294;31;20077;-68
2022/07/19 04:08:36;;;;;;;2.50;1.83;;;24.00;56.70;;;;;;4492205;31;20087;-68
2022/07/19 04:11:04;;;;;;;3.10;2.40;;;24.10;56.80;;;;;;4492225;31;20064;-68
2022/07/19 04:13:32;;;;;;;2.42;1.95;;;24.00;56.70;;;;;;4492120;31;20490;-68
2022/07/19 04:15:58;;;;;;;2.17;1.98;;;24.00;56.70;;;;;;4491948;31;20069;-68
2022/07/19 04:18:23;;;;;;;2.38;1.60;;;24.00;56.70;;;;;;4492137;31;20081;-71
2022/07/19 04:20:49;;;;;;;2.55;1.77;;;24.00;56.70;;;;;;4491884;31;20069;-68
2022/07/19 04:23:15;;;;;;;2.83;2.25;;;24.00;56.70;;;;;;4492026;31;20083;-68
2022/07/19 04:25:41;;;;;;;3.42;1.88;;;24.00;56.70;;;;;;4491999;31;20624;-68
2022/07/19 04:28:09;;;;;;;2.20;2.00;;;24.00;56.70;;;;;;4491830;31;20132;-69
2022/07/19 04:30:35;;;;;;;2.97;2.53;;;24.00;56.80;;;;;;4477821;31;20215;-69
2022/07/19 04:33:01;;;;;;;3.80;3.30;;;24.00;56.70;;;;;;4491914;31;20450;-68
2022/07/19 04:35:28;;;;;;;9.05;4.20;;;24.00;56.40;;;;;;4491808;31;20293;-69
2022/07/19 04:37:53;;;;;;;6.60;4.40;;;23.90;56.10;;;;;;4491741;31;20084;-68
2022/07/19 04:40:19;;;;;;;7.18;4.90;;;23.90;56.00;;;;;;4477081;31;20088;-69
2022/07/19 04:42:45;;;;;;;5.70;4.32;;;23.80;56.10;;;;;;4491719;31;20211;-69
2022/07/19 04:45:11;;;;;;;7.57;5.03;;;23.80;56.10;;;;;;4491852;31;20100;-68
2022/07/19 04:47:37;;;;;;;8.10;4.57;;;23.80;56.20;;;;;;4491927;31;20120;-68
2022/07/19 04:50:04;;;;;;;6.45;4.70;;;23.70;56.30;;;;;;4477595;31;20083;-68
2022/07/19 04:52:30;;;;;;;8.25;5.35;;;23.70;56.40;;;;;;4491843;31;20061;-69
2022/07/19 04:54:55;;;;;;;7.05;4.80;;;23.70;56.40;;;;;;4477441;31;20410;-68
2022/07/19 04:57:21;;;;;;;7.57;5.25;;;23.60;56.50;;;;;;4491468;31;20132;-69
2022/07/19 04:59:47;;;;;;;6.03;4.60;;;23.60;56.70;;;;;;4491642;31;20081;-68
2022/07/19 05:02:13;;;;;;;9.55;5.47;;;23.60;56.70;;;;;;4491972;31;20410;-69
2022/07/19 05:04:39;;;;;;;9.68;5.45;;;23.60;56.80;;;;;;4491447;31;20079;-68
2022/07/19 05:07:05;;;;;;;8.95;5.50;;;23.60;56.90;;;;;;4477301;31;20061;-68
2022/07/19 05:09:30;;;;;;;7.82;5.30;;;23.60;57.10;;;;;;4491693;31;20053;-68
2022/07/19 05:11:56;;;;;;;7.75;4.93;;;23.60;57.10;;;;;;4491393;31;21427;-69
2022/07/19 05:14:22;;;;;;;8.15;5.05;;;23.50;57.00;;;;;;4491522;31;20222;-69
2022/07/19 05:16:51;;;;;;;8.95;5.47;;;23.50;57.10;;;;;;4491042;31;20234;-68
2022/07/19 05:19:17;;;;;;;12.32;5.43;;;23.50;57.30;;;;;;4491703;31;20089;-68
2022/07/19 05:21:43;;;;;;;7.30;5.28;;;23.50;57.30;;;;;;4491235;31;20081;-68
2022/07/19 05:24:09;;;;;;;10.38;5.53;;;23.50;57.50;;;;;;4491251;31;20079;-68
2022/07/19 05:26:35;;;;;;;8.25;4.95;;;23.50;57.50;;;;;;4491402;31;20073;-69
2022/07/19 05:29:02;;;;;;;6.50;4.97;;;23.50;57.60;;;;;;4477077;31;20108;-68
2022/07/19 05:31:29;;;;;;;7.65;5.10;;;23.50;57.70;;;;;;4491503;31;20123;-69
2022/07/19 05:33:55;;;;;;;8.55;5.25;;;23.50;57.80;;;;;;4491262;32;20155;-68
2022/07/19 05:36:21;;;;;;;7.32;5.53;;;23.50;57.80;;;;;;4491390;32;20121;-70
2022/07/19 05:38:47;;;;;;;6.50;4.75;;;23.50;57.80;;;;;;4491318;32;20085;-68
2022/07/19 05:41:15;;;;;;;10.38;5.28;;;23.50;57.80;;;;;;4491159;32;20069;-68
2022/07/19 05:43:42;;;;;;;8.80;4.97;;;23.50;57.80;;;;;;4491164;32;20282;-68
2022/07/19 05:46:08;;;;;;;7.10;5.18;;;23.50;57.80;;;;;;4491152;32;20088;-69
2022/07/19 05:48:34;;;;;;;10.15;5.50;;;23.60;58.00;;;;;;4491153;32;20068;-68
2022/07/19 05:51:00;;;;;;;9.43;5.68;;;23.60;57.90;;;;;;4491152;32;20096;-68
2022/07/19 05:53:27;;;;;;;8.40;5.30;;;23.60;57.90;;;;;;4491072;32;20089;-68
2022/07/19 05:55:53;;;;;;;7.75;5.90;;;23.60;57.90;;;;;;4477131;32;20093;-68
2022/07/19 05:58:19;;;;;;;11.00;5.40;;;23.60;57.90;;;;;;4491017;32;20376;-68
2022/07/19 06:03:31;;;;;;;11.90;5.18;;;23.60;57.90;;;;;;4491112;32;20093;-68
2022/07/19 06:05:57;;;;;;;8.05;5.47;;;23.70;58.00;;;;;;4491195;32;20057;-68
2022/07/19 06:08:23;;;;;;;8.30;5.13;;;23.70;58.10;;;;;;4492312;31;20422;-68
2022/07/19 06:10:49;;;;;;;10.82;5.07;;;23.70;58.10;;;;;;4491068;31;20133;-74
2022/07/19 06:13:15;;;;;;;8.50;5.18;;;23.80;58.20;;;;;;4492626;31;20150;-72
2022/07/19 06:15:42;;;;;;;7.72;5.38;;;23.80;58.30;;;;;;4493054;31;20547;-72
2022/07/19 06:18:08;;;;;;;12.80;5.95;;;23.80;58.40;;;;;;4478902;31;20065;-72
2022/07/19 06:20:36;;;;;;;8.35;5.40;;;23.80;58.60;;;;;;4492987;31;20265;-72
2022/07/19 06:23:02;;;;;;;8.80;5.38;;;23.80;58.80;;;;;;4492036;31;20522;-72
2022/07/19 06:25:28;;;;;;;8.75;4.80;;;23.90;59.00;;;;;;4465748;31;20124;-73
2022/07/19 06:27:54;;;;;;;11.13;5.65;;;23.90;59.00;;;;;;4475847;31;20302;-72
2022/07/19 06:30:20;;;;;;;8.02;4.95;;;23.90;58.90;;;;;;4483710;31;20158;-73
2022/07/19 06:32:46;;;;;;;5.82;4.22;;;23.90;58.90;;;;;;4480445;31;20082;-72
2022/07/19 06:35:11;;;;;;;8.85;4.35;;;24.00;58.90;;;;;;4477992;31;20301;-72
2022/07/19 06:37:37;;;;;;;7.85;4.57;;;24.00;59.00;;;;;;4493435;31;20057;-72
2022/07/19 06:40:04;;;;;;;6.40;4.55;;;24.00;59.00;;;;;;4493911;31;20123;-72
2022/07/19 06:42:31;;;;;;;10.85;4.80;;;24.00;59.00;;;;;;4493812;31;20153;-73
2022/07/19 06:44:59;;;;;;;8.57;4.78;;;24.00;58.90;;;;;;4493527;31;20522;-72
2022/07/19 06:47:24;;;;;;;10.57;4.78;;;24.10;58.90;;;;;;4479552;31;20514;-72
2022/07/19 06:49:50;;;;;;;7.32;5.05;;;24.10;58.90;;;;;;4493392;31;20155;-72
2022/07/19 06:52:17;;;;;;;10.63;4.80;;;24.10;58.90;;;;;;4493456;31;20422;-72
2022/07/19 06:54:43;;;;;;;12.25;4.90;;;24.10;58.90;;;;;;4479227;31;20089;-71
2022/07/19 06:57:08;;;;;;;9.02;4.15;;;24.20;58.90;;;;;;4479292;31;20089;-71
2022/07/19 06:59:34;;;;;;;7.00;4.13;;;24.20;58.90;;;;;;4493559;31;20076;-71
2022/07/19 07:02:01;;;;;;;6.78;3.78;;;24.20;58.70;;;;;;4493234;31;20076;-71
2022/07/19 07:04:27;;;;;;;8.18;4.10;;;24.20;58.60;;;;;;4493366;31;20422;-72
2022/07/19 07:06:53;;;;;;;19.15;4.53;;;24.20;58.60;;;;;;4493272;31;20521;-71
2022/07/19 07:09:19;;;;;;;5.40;3.63;;;24.20;58.60;;;;;;4493431;31;20506;-72
2022/07/19 07:11:46;;;;;;;6.75;4.15;;;24.20;58.60;;;;;;4493088;31;20139;-72
2022/07/19 07:14:12;;;;;;;5.50;4.00;;;24.30;58.70;;;;;;4493321;31;20097;-71
2022/07/19 07:16:37;;;;;;;7.55;4.20;;;24.30;58.70;;;;;;4492994;31;20395;-72
2022/07/19 07:19:23;;;;;;;6.03;3.53;;;24.30;58.70;;;;;;4492982;31;20069;-72
2022/07/19 07:21:49;;;;;;;6.40;3.90;;;24.30;58.70;;;;;;4478639;31;20160;-75
2022/07/19 07:24:35;;;;;;;5.82;3.88;;;24.30;58.70;;;;;;4481239;31;20402;-72
2022/07/19 07:27:01;;;;;;;10.35;4.20;;;24.30;58.70;;;;;;4492849;31;20525;-72
2022/07/19 07:29:27;;;;;;;7.25;4.15;;;24.30;58.70;;;;;;4493065;31;20065;-72
2022/07/19 07:31:52;;;;;;;7.65;4.10;;;24.40;58.70;;;;;;4493079;31;20069;-71
2022/07/19 07:34:18;;;;;;;6.55;4.28;;;24.40;58.80;;;;;;4492688;31;20096;-72
2022/07/19 07:36:44;;;;;;;9.70;4.30;;;24.40;58.70;;;;;;4487423;31;20065;-71
2022/07/19 07:39:11;;;;;;;5.65;3.58;;;24.40;58.80;;;;;;4487242;31;20119;-70
2022/07/19 07:41:37;;;;;;;6.65;3.97;;;24.40;58.70;;;;;;4492548;31;20080;-69
2022/07/19 07:44:03;;;;;;;6.18;3.70;;;24.40;58.80;;;;;;4492708;31;20084;-70
2022/07/19 07:46:29;;;;;;;6.50;3.50;;;24.40;58.70;;;;;;4492454;31;20089;-70
2022/07/19 07:48:55;;;;;;;5.45;3.47;;;24.40;58.70;;;;;;4478516;31;20075;-70
2022/07/19 07:51:21;;;;;;;5.45;3.60;;;24.50;58.70;;;;;;4492136;31;20061;-70
2022/07/19 07:53:47;;;;;;;6.38;3.55;;;24.40;58.60;;;;;;4492684;31;20102;-69
2022/07/19 07:56:13;;;;;;;4.95;3.88;;;24.50;58.70;;;;;;4492679;31;20089;-70
2022/07/19 07:58:39;;;;;;;5.85;3.72;;;24.50;58.70;;;;;;4492145;31;20088;-70
2022/07/19 08:01:05;;;;;;;7.13;3.40;;;24.50;58.70;;;;;;4491493;31;20534;-70
2022/07/19 08:03:31;;;;;;;5.70;3.45;;;24.50;58.60;;;;;;4492178;31;20125;-69
2022/07/19 08:05:57;;;;;;;10.57;4.00;;;24.50;58.60;;;;;;4492486;31;20402;-70
2022/07/19 08:08:26;;;;;;;4.72;3.67;;;24.50;58.60;;;;;;4492190;31;20096;-70
2022/07/19 08:10:56;;;;;;;7.25;3.72;;;24.50;58.60;;;;;;4492553;31;20146;-70
2022/07/19 08:13:22;;;;;;;5.28;3.45;;;24.60;58.70;;;;;;4492135;31;20136;-69
2022/07/19 08:15:49;;;;;;;5.80;3.55;;;24.60;58.60;;;;;;4481799;31;20100;-70
2022/07/19 08:18:16;;;;;;;4.68;3.42;;;24.60;58.60;;;;;;4492288;31;20535;-70
2022/07/19 08:20:43;;;;;;;6.60;3.30;;;24.60;58.60;;;;;;4491595;31;20236;-70
2022/07/19 08:23:08;;;;;;;4.00;3.50;;;24.60;58.60;;;;;;4492305;31;20319;-70
2022/07/19 08:25:34;;;;;;;4.38;3.50;;;24.60;58.60;;;;;;4491928;31;20491;-69
2022/07/19 08:28:01;;;;;;;5.80;3.38;;;24.60;58.50;;;;;;4480795;31;20290;-69
2022/07/19 08:30:27;;;;;;;7.10;3.85;;;24.70;58.60;;;;;;4476537;31;20577;-71
2022/07/19 08:32:53;;;;;;;5.90;3.70;;;24.70;58.60;;;;;;4492132;31;20096;-70
2022/07/19 08:35:19;;;;;;;4.57;3.17;;;24.70;58.50;;;;;;4492010;31;20065;-70
2022/07/19 08:37:45;;;;;;;9.05;4.00;;;24.70;58.50;;;;;;4491627;31;20410;-69
2022/07/19 08:40:11;;;;;;;5.13;3.40;;;24.70;58.70;;;;;;4491959;31;20089;-70
2022/07/19 08:42:38;;;;;;;4.32;3.53;;;24.70;58.60;;;;;;4491822;31;20223;-70
2022/07/19 08:45:07;;;;;;;5.80;3.50;;;24.80;58.60;;;;;;4477894;31;20210;-70
2022/07/19 08:47:34;;;;;;;6.57;3.80;;;24.80;58.50;;;;;;4491937;31;20104;-69
2022/07/19 08:50:00;;;;;;;5.43;3.45;;;24.80;58.50;;;;;;4491757;31;20510;-70
2022/07/19 08:52:26;;;;;;;6.00;3.13;;;24.80;58.50;;;;;;4485243;31;20077;-70
2022/07/19 08:54:55;;;;;;;5.15;3.80;;;24.80;58.50;;;;;;4479960;31;20218;-70
2022/07/19 09:00:06;;;;;;;7.20;3.55;;;24.80;58.50;;;;;;4491543;31;20077;-69
2022/07/19 09:02:32;;;;;;;6.43;4.10;;;24.80;59.40;;;;;;4491627;31;20105;-70
2022/07/19 09:05:07;;;;;;;4.57;3.40;;;24.80;58.50;;;;;;4477392;31;20146;-70
2022/07/19 09:07:35;;;;;;;4.63;3.13;;;24.80;58.50;;;;;;4491536;31;20091;-69
2022/07/19 09:10:21;;;;;;;4.55;3.60;;;24.80;58.50;;;;;;4491495;31;20289;-69
2022/07/19 09:13:02;;;;;;;5.95;3.53;;;24.80;58.50;;;;;;4477490;31;20530;-69
2022/07/19 09:15:49;;;;;;;5.93;3.75;;;24.80;58.90;;;;;;4478532;31;20069;-69
2022/07/19 09:18:17;;;;;;;4.47;3.58;;;24.80;58.40;;;;;;4476647;31;20121;-70
2022/07/19 09:20:44;;;;;;;7.30;3.67;;;24.80;58.50;;;;;;4476808;31;20085;-69
2022/07/19 09:23:10;;;;;;;6.55;4.13;;;24.80;58.40;;;;;;4484282;31;20084;-69
2022/07/19 09:25:41;;;;;;;6.57;3.53;;;24.80;58.40;;;;;;4483166;31;20069;-69
2022/07/19 09:28:08;;;;;;;7.38;3.45;;;24.80;58.40;;;;;;4476928;31;20091;-69
2022/07/19 09:30:44;;;;;;;5.38;3.50;;;24.80;58.40;;;;;;4487818;31;20100;-68
2022/07/19 09:33:15;;;;;;;5.25;3.13;;;24.80;58.30;;;;;;4491404;31;20110;-68
2022/07/19 09:35:53;;;;;;;8.52;3.30;;;24.80;58.30;;;;;;4491240;32;20656;-68
2022/07/19 09:38:31;;;;;;;4.57;3.38;;;24.90;58.30;;;;;;4491245;32;20131;-69
2022/07/19 09:41:06;;;;;;;5.38;3.50;;;24.80;58.30;;;;;;4491253;32;20207;-69
2022/07/19 09:43:52;;;;;;;5.35;3.10;;;24.90;58.30;;;;;;4482707;31;20272;-68
2022/07/19 09:46:37;;;;;;;6.93;3.28;;;24.80;58.20;;;;;;4494380;31;20105;-69
2022/07/19 09:49:05;;;;;;;4.60;2.97;;;24.90;58.20;;;;;;4480331;31;20496;-68
2022/07/19 09:51:37;;;;;;;6.30;3.50;;;24.80;58.20;;;;;;4493797;31;20170;-68
2022/07/19 09:54:04;;;;;;;5.35;3.10;;;24.80;58.10;;;;;;4496311;31;20065;-68
2022/07/19 09:56:32;;;;;;;4.75;2.90;;;24.90;58.20;;;;;;4486207;31;20330;-68
2022/07/19 09:58:59;;;;;;;7.78;3.53;;;24.90;58.20;;;;;;4479243;31;20074;-69
2022/07/19 10:01:26;;;;;;;5.90;3.10;;;24.90;58.20;;;;;;4479018;31;20058;-68
2022/07/19 10:03:56;;;;;;;4.57;3.28;;;24.90;58.20;;;;;;4478712;31;20397;-68
2022/07/19 10:06:23;;;;;;;4.05;3.22;;;24.90;58.20;;;;;;4480558;31;20131;-68
2022/07/19 10:08:50;;;;;;;4.50;2.90;;;24.90;58.20;;;;;;4488913;31;20207;-68
2022/07/19 10:11:17;;;;;;;4.90;2.92;;;24.90;58.10;;;;;;4487942;31;20431;-68
2022/07/19 10:13:43;;;;;;;6.32;2.67;;;24.90;59.20;;;;;;4487296;31;20100;-68
2022/07/19 10:16:18;;;;;;;5.22;2.83;;;24.90;58.30;;;;;;4491773;31;20097;-68
2022/07/19 10:19:02;;;;;;;3.35;2.70;;;24.90;58.30;;;;;;4493591;31;20537;-68
2022/07/19 10:21:30;;;;;;;4.32;2.40;;;24.90;58.20;;;;;;4483310;31;20065;-68
2022/07/19 10:23:55;;;;;;;4.82;2.78;;;24.90;58.10;;;;;;4479898;31;20234;-68
2022/07/19 10:26:37;;;;;;;5.22;2.88;;;24.90;58.10;;;;;;4478458;31;20062;-67
2022/07/19 10:29:10;;;;;;;4.53;2.70;;;25.00;58.20;;;;;;4482978;31;20186;-72
2022/07/19 10:31:36;;;;;;;;;;;24.90;58.10;;;;;;4494677;31;20181;-69
2022/07/19 10:34:07;;;;;;;4.57;2.33;;;24.90;57.90;;;;;;4493619;31;20023;-66
2022/07/19 10:36:47;;;;;;;3.50;2.55;;;24.90;57.90;;;;;;4479497;31;20136;-66
2022/07/19 10:39:33;;;;;;;5.63;2.28;;;24.90;57.80;;;;;;4493459;31;20185;-67
2022/07/19 10:42:19;;;;;;;4.22;2.30;;;24.90;57.20;;;;;;4492944;31;20069;-67
2022/07/19 10:44:57;;;;;;;4.90;2.20;;;24.90;57.00;;;;;;4489183;31;20069;-68
2022/07/19 10:47:46;;;;;;;8.40;2.35;;;24.90;56.90;;;;;;4493366;31;20119;-67
2022/07/19 10:50:14;;;;;;;9.70;2.47;;;24.80;56.60;;;;;;4493049;31;20072;-67
2022/07/19 10:52:42;;;;;;;4.25;2.15;;;24.80;56.70;;;;;;4479451;31;20065;-67
2022/07/19 10:55:17;;;;;;;4.95;2.40;;;24.80;56.40;;;;;;4492583;31;20065;-67
2022/07/19 10:57:47;;;;;;;5.10;2.45;;;24.80;56.40;;;;;;4493307;31;20099;-67
2022/07/19 11:00:28;;;;;;;3.47;1.70;;;24.80;56.40;;;;;;4492975;31;20623;-67
2022/07/19 11:03:22;;;;;;;2.72;1.85;;;24.80;56.50;;;;;;4493231;31;20104;-67
2022/07/19 11:05:52;;;;;;;4.45;1.85;;;24.80;56.40;;;;;;4492741;31;20226;-67
2022/07/19 11:08:31;;;;;;;4.40;2.25;;;24.80;56.50;;;;;;4493155;31;20498;-67
2022/07/19 11:11:07;;;;;;;5.47;1.88;;;24.80;56.50;;;;;;4491651;31;20202;-67
2022/07/19 11:13:34;;;;;;;3.78;2.03;;;24.80;56.20;;;;;;4490768;31;20190;-67
2022/07/19 11:16:02;;;;;;;4.03;1.92;;;24.80;56.30;;;;;;4492751;31;20107;-66
2022/07/19 11:18:30;;;;;;;3.45;1.92;;;24.80;56.10;;;;;;4491486;31;20234;-67
2022/07/19 11:21:00;;;;;;;4.07;1.98;;;24.80;56.00;;;;;;4478508;31;20085;-67
2022/07/19 11:23:32;;;;;;;4.82;2.10;;;24.80;56.00;;;;;;4455727;31;20126;-66
2022/07/19 11:26:24;;;;;;;2.85;1.90;;;24.80;55.90;;;;;;4449345;32;20538;-68
2022/07/19 11:28:51;;;;;;;4.35;1.80;;;24.80;55.90;;;;;;4458622;32;20104;-67
2022/07/19 11:31:23;;;;;;;4.38;2.03;;;24.80;56.00;;;;;;4461384;32;20077;-68
2022/07/19 11:33:58;;;;;;;3.88;1.85;;;24.80;56.10;;;;;;4461407;32;20073;-67
2022/07/19 11:36:26;;;;;;;4.05;2.22;;;24.80;56.20;;;;;;4461357;32;20077;-66
2022/07/19 11:38:58;;;;;;;6.90;1.88;;;24.80;56.30;;;;;;4461164;32;20092;-68
2022/07/19 11:41:30;;;;;;;2.90;1.85;;;24.80;56.40;;;;;;4459519;32;20082;-69
2022/07/19 11:44:02;;;;;;;2.97;2.00;;;24.80;56.50;;;;;;4445477;32;20596;-65
2022/07/19 11:46:40;;;;;;;4.13;1.80;;;24.80;56.60;;;;;;4441346;32;20085;-69
2022/07/19 11:49:08;;;;;;;6.30;1.70;;;24.80;56.60;;;;;;4438462;32;20086;-66
2022/07/19 11:51:34;;;;;;;3.28;1.77;;;24.80;56.70;;;;;;4445028;32;20066;-68
2022/07/19 11:54:01;;;;;;;3.35;1.95;;;24.80;56.70;;;;;;4445287;32;20499;-67
2022/07/19 11:56:33;;;;;;;2.80;1.30;;;24.90;56.80;;;;;;4445274;32;20479;-68
2022/07/19 11:59:03;;;;;;;4.65;1.80;;;24.90;56.70;;;;;;4445068;32;20094;-68
2022/07/19 12:01:39;;;;;;;5.03;2.05;;;24.90;56.70;;;;;;4445372;32;20090;-68
2022/07/19 12:04:08;;;;;;;4.40;1.70;;;24.90;56.50;;;;;;4445331;32;20070;-68
2022/07/19 12:06:52;;;;;;;5.72;1.73;;;24.90;56.40;;;;;;4444420;32;20129;-66
2022/07/19 12:09:30;;;;;;;1.98;1.60;;;24.90;56.40;;;;;;4445526;32;20094;-68
2022/07/19 12:11:57;;;;;;;3.13;1.48;;;24.90;56.40;;;;;;4444988;32;20288;-68
2022/07/19 12:14:32;;;;;;;4.97;2.10;;;25.00;56.40;;;;;;4444911;32;20118;-68
2022/07/19 12:17:16;;;;;;;5.35;1.88;;;25.00;56.40;;;;;;4444868;32;20089;-67
2022/07/19 12:19:44;;;;;;;3.70;1.65;;;25.00;56.30;;;;;;4444651;32;20125;-67
2022/07/19 12:22:39;;;;;;;6.43;1.80;;;25.00;56.20;;;;;;4444720;32;20134;-67
2022/07/19 12:25:08;;;;;;;4.90;1.67;;;25.00;56.10;;;;;;4445656;32;20419;-67
2022/07/19 12:27:35;;;;;;;4.63;1.48;;;25.00;56.20;;;;;;4445081;32;20097;-68
2022/07/19 12:30:03;;;;;;;6.60;1.50;;;25.00;56.20;;;;;;4446061;32;20066;-67
2022/07/19 12:32:33;;;;;;;3.33;1.33;;;25.00;56.20;;;;;;4444792;32;20069;-67
2022/07/19 12:35:04;;;;;;;2.92;1.70;;;25.10;56.30;;;;;;4436233;32;20224;-67
2022/07/19 12:37:36;;;;;;;2.70;1.50;;;25.10;56.30;;;;;;4446240;32;20179;-67
2022/07/19 12:40:20;;;;;;;4.43;1.35;;;25.10;57.30;;;;;;4441887;32;20212;-66
2022/07/19 12:43:03;;;;;;;5.00;1.50;;;25.10;56.50;;;;;;4444440;32;20078;-67
2022/07/19 12:45:34;;;;;;;2.75;1.50;;;25.10;56.40;;;;;;4443755;32;20517;-67
2022/07/19 12:48:01;;;;;;;3.40;1.50;;;25.20;56.50;;;;;;4442330;32;20081;-67
2022/07/19 12:50:31;;;;;;;4.47;1.40;;;25.20;56.50;;;;;;4444349;32;20495;-67
2022/07/19 12:53:01;;;;;;;3.40;1.67;;;25.20;56.50;;;;;;4444405;32;20082;-67
2022/07/19 12:55:28;;;;;;;4.43;1.38;;;25.20;56.40;;;;;;4443249;32;20523;-67
2022/07/19 12:57:55;;;;;;;1.67;1.30;;;25.20;56.30;;;;;;4447084;32;20503;-67